createdAt,value
2017-09-07T00:01:14.457Z,97.61
2017-09-07T00:03:14.192Z,97.61
2017-09-07T00:04:14.528Z,96.75
2017-09-07T00:05:14.551Z,97.04
2017-09-07T00:06:14.571Z,96.47
2017-09-07T00:07:14.584Z,97.23
2017-09-07T00:09:14.628Z,96.47
2017-09-07T00:10:14.655Z,96.84
2017-09-07T00:11:14.685Z,96.66
2017-09-07T00:12:14.392Z,96.66
2017-09-07T00:13:14.719Z,97.33
2017-09-07T00:14:14.745Z,96.66
2017-09-07T00:15:29.390Z,96.47
2017-09-07T00:16:14.796Z,96.75
2017-09-07T00:17:14.820Z,96.56
2017-09-07T00:18:14.834Z,96.84
2017-09-07T00:19:14.858Z,97.04
2017-09-07T00:20:14.571Z,97.42
2017-09-07T00:21:14.904Z,96.94
2017-09-07T00:22:14.928Z,96.47
2017-09-07T00:23:14.952Z,96.94
2017-09-07T00:24:14.975Z,96.47
2017-09-07T00:25:14.998Z,97.8
2017-09-07T00:26:15.011Z,96.42
2017-09-07T00:27:15.036Z,97.18
2017-09-07T00:28:15.067Z,97.18
2017-09-07T00:29:15.083Z,97.75
2017-09-07T00:31:29.748Z,97.08
2017-09-07T00:32:15.150Z,97.42
2017-09-07T00:33:15.178Z,97.47
2017-09-07T00:34:15.195Z,97.47
2017-09-07T00:35:15.214Z,97.94
2017-09-07T00:36:14.929Z,98.33
2017-09-07T00:37:15.255Z,98.13
2017-09-07T00:38:15.291Z,97.66
2017-09-07T00:39:15.301Z,98.23
2017-09-07T00:40:15.333Z,98.33
2017-09-07T00:41:15.351Z,97.94
2017-09-07T00:42:15.374Z,98.23
2017-09-07T00:43:15.400Z,98.52
2017-09-07T00:44:15.453Z,98.61
2017-09-07T00:45:15.440Z,98.8
2017-09-07T00:46:15.510Z,99.09
2017-09-07T00:47:30.108Z,99.09
2017-09-07T00:51:15.263Z,99.09
2017-09-07T00:52:15.594Z,98.99
2017-09-07T00:53:15.617Z,98.8
2017-09-07T00:54:15.334Z,98.71
2017-09-07T00:55:15.655Z,98.61
2017-09-07T00:56:15.687Z,99.28
2017-09-07T00:57:15.706Z,99.28
2017-09-07T00:58:15.737Z,99.57
2017-09-07T00:59:15.752Z,99.57
2017-09-07T01:00:15.774Z,99.99
2017-09-07T01:01:15.801Z,99.76
2017-09-07T01:02:30.435Z,99.66
2017-09-07T01:03:15.528Z,99.85
2017-09-07T01:04:15.855Z,99.57
2017-09-07T01:05:15.885Z,99.99
2017-09-07T01:06:15.901Z,99.66
2017-09-07T01:07:15.924Z,99.8
2017-09-07T01:08:15.949Z,99.62
2017-09-07T01:09:15.968Z,99.99
2017-09-07T01:10:15.992Z,99.52
2017-09-07T01:11:16.015Z,99.8
2017-09-07T01:12:16.040Z,99.99
2017-09-07T01:13:16.059Z,99.8
2017-09-07T01:14:16.083Z,99.99
2017-09-07T01:15:16.104Z,99.71
2017-09-07T01:16:16.127Z,99.99
2017-09-07T01:17:16.195Z,99.99
2017-09-07T01:18:15.859Z,99.9
2017-09-07T01:19:16.189Z,99.8
2017-09-07T01:20:16.217Z,99.8
2017-09-07T01:21:16.235Z,99.99
2017-09-07T01:22:16.257Z,99.99
2017-09-07T01:23:16.277Z,99.99
2017-09-07T01:24:16.298Z,99.99
2017-09-07T01:25:16.320Z,99.99
2017-09-07T01:26:16.342Z,99.99
2017-09-07T01:27:16.366Z,99.99
2017-09-07T01:28:16.392Z,99.99
2017-09-07T01:29:16.101Z,99.99
2017-09-07T01:30:16.455Z,99.99
2017-09-07T01:31:16.452Z,99.99
2017-09-07T01:32:16.480Z,99.99
2017-09-07T01:33:16.499Z,99.99
2017-09-07T01:34:31.143Z,99.99
2017-09-07T01:35:16.545Z,99.99
2017-09-07T01:38:16.300Z,99.99
2017-09-07T01:39:16.636Z,99.99
2017-09-07T01:40:16.656Z,99.99
2017-09-07T01:41:16.677Z,99.99
2017-09-07T01:42:16.696Z,99.99
2017-09-07T01:43:16.722Z,99.99
2017-09-07T01:44:16.742Z,99.99
2017-09-07T01:45:16.770Z,99.99
2017-09-07T01:46:16.786Z,99.99
2017-09-07T01:47:16.809Z,99.99
2017-09-07T01:48:16.828Z,99.99
2017-09-07T01:50:31.495Z,99.99
2017-09-07T01:52:16.919Z,99.99
2017-09-07T01:53:16.938Z,99.99
2017-09-07T01:54:16.960Z,99.99
2017-09-07T01:55:16.982Z,99.99
2017-09-07T01:56:17.005Z,99.99
2017-09-07T01:57:17.026Z,99.99
2017-09-07T01:58:17.049Z,99.99
2017-09-07T01:59:17.070Z,99.99
2017-09-07T02:00:17.094Z,99.99
2017-09-07T02:01:17.119Z,99.99
2017-09-07T02:02:16.829Z,99.99
2017-09-07T02:03:17.157Z,99.99
2017-09-07T02:05:16.896Z,99.99
2017-09-07T02:06:31.846Z,99.99
2017-09-07T02:08:17.270Z,99.99
2017-09-07T02:09:17.289Z,99.99
2017-09-07T02:10:17.310Z,99.99
2017-09-07T02:11:17.338Z,99.99
2017-09-07T02:12:17.355Z,99.99
2017-09-07T02:13:17.377Z,99.99
2017-09-07T02:14:17.399Z,99.99
2017-09-07T02:15:17.419Z,99.99
2017-09-07T02:16:17.443Z,99.99
2017-09-07T02:17:17.462Z,99.99
2017-09-07T02:18:17.487Z,99.99
2017-09-07T02:19:17.508Z,99.99
2017-09-07T02:20:17.531Z,99.99
2017-09-07T02:21:17.245Z,99.99
2017-09-07T02:22:32.196Z,99.99
2017-09-07T02:23:17.290Z,99.99
2017-09-07T02:24:17.309Z,99.99
2017-09-07T02:25:17.331Z,99.99
2017-09-07T02:26:17.354Z,99.99
2017-09-07T02:27:17.684Z,99.99
2017-09-07T02:28:17.396Z,99.99
2017-09-07T02:30:17.750Z,99.99
2017-09-07T02:31:17.806Z,99.99
2017-09-07T02:32:17.793Z,99.99
2017-09-07T02:33:17.817Z,99.99
2017-09-07T02:34:17.838Z,99.99
2017-09-07T02:35:17.859Z,99.99
2017-09-07T02:36:17.883Z,99.99
2017-09-07T02:37:32.527Z,99.99
2017-09-07T02:38:17.929Z,99.99
2017-09-07T02:39:17.947Z,99.99
2017-09-07T02:40:17.980Z,99.99
2017-09-07T02:41:17.994Z,99.99
2017-09-07T02:42:18.014Z,99.99
2017-09-07T02:43:18.038Z,99.99
2017-09-07T02:44:17.749Z,99.99
2017-09-07T02:45:18.085Z,99.99
2017-09-07T02:46:18.102Z,99.99
2017-09-07T02:47:18.130Z,99.99
2017-09-07T02:48:18.151Z,99.99
2017-09-07T02:49:18.167Z,99.99
2017-09-07T02:50:18.191Z,99.99
2017-09-07T02:51:18.215Z,99.99
2017-09-07T02:52:18.235Z,99.99
2017-09-07T02:53:18.256Z,99.99
2017-09-07T02:54:18.279Z,99.99
2017-09-07T02:55:17.990Z,99.99
2017-09-07T02:56:18.015Z,99.99
2017-09-07T02:57:18.034Z,99.99
2017-09-07T03:00:18.409Z,99.99
2017-09-07T03:01:18.430Z,99.99
2017-09-07T03:02:18.145Z,99.99
2017-09-07T03:03:18.476Z,99.99
2017-09-07T03:04:18.192Z,99.99
2017-09-07T03:05:18.526Z,99.99
2017-09-07T03:06:18.543Z,99.99
2017-09-07T03:07:18.566Z,99.99
2017-09-07T03:08:18.585Z,99.99
2017-09-07T03:09:33.229Z,99.99
2017-09-07T03:11:18.651Z,99.99
2017-09-07T03:12:18.674Z,99.99
2017-09-07T03:13:18.698Z,99.99
2017-09-07T03:14:18.717Z,99.99
2017-09-07T03:15:18.739Z,99.99
2017-09-07T03:16:18.763Z,99.99
2017-09-07T03:17:18.783Z,99.99
2017-09-07T03:18:18.806Z,99.99
2017-09-07T03:19:18.825Z,99.99
2017-09-07T03:20:18.848Z,99.99
2017-09-07T03:21:18.871Z,99.99
2017-09-07T03:22:18.892Z,99.99
2017-09-07T03:23:18.914Z,99.99
2017-09-07T03:24:18.994Z,99.99
2017-09-07T03:25:33.581Z,99.99
2017-09-07T03:26:18.979Z,99.99
2017-09-07T03:27:19.009Z,99.99
2017-09-07T03:28:19.022Z,99.99
2017-09-07T03:29:19.045Z,99.99
2017-09-07T03:30:19.070Z,99.99
2017-09-07T03:31:19.090Z,99.99
2017-09-07T03:32:19.113Z,99.99
2017-09-07T03:33:19.138Z,99.99
2017-09-07T03:34:19.152Z,99.99
2017-09-07T03:35:19.176Z,99.99
2017-09-07T03:36:19.203Z,99.99
2017-09-07T03:37:18.912Z,99.99
2017-09-07T03:38:19.240Z,99.99
2017-09-07T03:39:19.265Z,99.99
2017-09-07T03:40:19.287Z,99.99
2017-09-07T03:41:33.928Z,99.99
2017-09-07T03:43:19.349Z,99.99
2017-09-07T03:44:19.374Z,99.99
2017-09-07T03:45:19.093Z,99.99
2017-09-07T03:46:19.417Z,99.99
2017-09-07T03:47:19.440Z,99.99
2017-09-07T03:48:19.462Z,99.99
2017-09-07T03:49:19.480Z,99.99
2017-09-07T03:50:19.503Z,99.99
2017-09-07T03:51:19.525Z,99.99
2017-09-07T03:52:19.544Z,99.99
2017-09-07T03:53:19.573Z,99.99
2017-09-07T03:54:19.594Z,99.99
2017-09-07T03:55:19.613Z,99.99
2017-09-07T03:56:19.631Z,99.99
2017-09-07T03:57:34.278Z,99.99
2017-09-07T03:58:19.368Z,99.99
2017-09-07T04:01:19.744Z,99.99
2017-09-07T04:02:19.813Z,99.99
2017-09-07T04:03:19.784Z,99.99
2017-09-07T04:04:19.809Z,99.99
2017-09-07T04:05:19.831Z,99.99
2017-09-07T04:06:19.854Z,99.99
2017-09-07T04:07:19.874Z,99.99
2017-09-07T04:08:19.897Z,99.99
2017-09-07T04:09:19.610Z,99.99
2017-09-07T04:10:19.939Z,99.99
2017-09-07T04:11:19.963Z,99.99
2017-09-07T04:12:34.605Z,99.99
2017-09-07T04:13:20.005Z,99.99
2017-09-07T04:14:20.027Z,99.99
2017-09-07T04:15:20.052Z,99.99
2017-09-07T04:16:20.068Z,99.99
2017-09-07T04:17:20.090Z,99.99
2017-09-07T04:18:19.803Z,99.99
2017-09-07T04:19:20.134Z,99.99
2017-09-07T04:20:20.158Z,99.99
2017-09-07T04:21:20.177Z,99.99
2017-09-07T04:22:20.201Z,99.99
2017-09-07T04:23:20.224Z,99.99
2017-09-07T04:24:20.243Z,99.99
2017-09-07T04:25:20.267Z,99.99
2017-09-07T04:26:19.985Z,99.99
2017-09-07T04:27:20.001Z,99.99
2017-09-07T04:28:20.329Z,99.99
2017-09-07T04:29:20.358Z,99.99
2017-09-07T04:30:20.374Z,99.99
2017-09-07T04:31:20.394Z,99.99
2017-09-07T04:33:20.440Z,99.99
2017-09-07T04:34:20.459Z,99.99
2017-09-07T04:35:20.484Z,99.99
2017-09-07T04:36:20.504Z,99.99
2017-09-07T04:37:20.529Z,99.99
2017-09-07T04:38:20.545Z,99.99
2017-09-07T04:39:20.568Z,99.99
2017-09-07T04:40:20.282Z,99.99
2017-09-07T04:41:20.610Z,99.99
2017-09-07T04:42:20.631Z,99.99
2017-09-07T04:43:20.346Z,99.99
2017-09-07T04:44:35.298Z,99.99
2017-09-07T04:45:20.697Z,99.99
2017-09-07T04:46:20.720Z,99.99
2017-09-07T04:47:20.745Z,99.99
2017-09-07T04:48:20.786Z,99.99
2017-09-07T04:49:20.785Z,99.99
2017-09-07T04:50:20.808Z,99.99
2017-09-07T04:51:20.827Z,99.99
2017-09-07T04:52:20.856Z,99.99
2017-09-07T04:53:20.874Z,99.99
2017-09-07T04:54:20.894Z,99.99
2017-09-07T04:55:20.914Z,99.99
2017-09-07T04:56:20.944Z,99.99
2017-09-07T04:57:20.957Z,99.99
2017-09-07T04:58:20.980Z,99.99
2017-09-07T04:59:21.005Z,99.99
2017-09-07T05:00:35.644Z,99.99
2017-09-07T05:01:21.052Z,99.99
2017-09-07T05:02:21.065Z,99.99
2017-09-07T05:03:21.087Z,99.99
2017-09-07T05:04:21.110Z,99.99
2017-09-07T05:05:21.130Z,99.99
2017-09-07T05:06:21.405Z,99.99
2017-09-07T05:07:21.175Z,99.99
2017-09-07T05:08:21.197Z,99.99
2017-09-07T05:09:21.220Z,99.99
2017-09-07T05:10:21.239Z,99.99
2017-09-07T05:11:21.263Z,99.99
2017-09-07T05:12:21.284Z,99.99
2017-09-07T05:13:21.310Z,99.99
2017-09-07T05:14:21.021Z,99.99
2017-09-07T05:16:35.992Z,99.99
2017-09-07T05:17:21.392Z,99.99
2017-09-07T05:18:21.413Z,99.99
2017-09-07T05:19:21.437Z,99.99
2017-09-07T05:20:21.459Z,99.99
2017-09-07T05:21:21.479Z,99.99
2017-09-07T05:22:21.507Z,99.99
2017-09-07T05:23:21.526Z,99.99
2017-09-07T05:24:21.545Z,99.99
2017-09-07T05:25:21.260Z,99.99
2017-09-07T05:26:21.593Z,99.8
2017-09-07T05:27:21.613Z,99.95
2017-09-07T05:28:21.833Z,99.99
2017-09-07T05:29:21.654Z,99.66
2017-09-07T05:30:21.727Z,99.95
2017-09-07T05:32:36.344Z,99.38
2017-09-07T05:33:21.745Z,99.48
2017-09-07T05:34:21.769Z,98.71
2017-09-07T05:35:21.785Z,98.99
2017-09-07T05:36:21.808Z,98.9
2017-09-07T05:37:21.837Z,99.28
2017-09-07T05:38:21.854Z,99.19
2017-09-07T05:40:21.901Z,98.52
2017-09-07T05:41:21.920Z,99.09
2017-09-07T05:42:21.942Z,98.8
2017-09-07T05:43:21.963Z,98.23
2017-09-07T05:44:21.989Z,98.42
2017-09-07T05:45:22.061Z,98.23
2017-09-07T05:47:36.675Z,98.33
2017-09-07T05:48:22.078Z,98.23
2017-09-07T05:49:22.105Z,97.9
2017-09-07T05:50:22.121Z,97.99
2017-09-07T05:51:22.172Z,97.42
2017-09-07T05:52:22.165Z,97.71
2017-09-07T05:53:21.876Z,97.13
2017-09-07T05:54:22.208Z,96.66
2017-09-07T05:55:22.234Z,96.84
2017-09-07T05:56:22.251Z,96.47
2017-09-07T05:57:21.969Z,96.18
2017-09-07T05:58:22.296Z,96.27
2017-09-07T05:59:22.319Z,96.47
2017-09-07T06:00:22.345Z,96.47
2017-09-07T06:01:22.364Z,96.94
2017-09-07T06:02:22.077Z,97.04
2017-09-07T06:03:22.406Z,96.47
2017-09-07T06:04:22.121Z,96.47
2017-09-07T06:05:22.145Z,96.66
2017-09-07T06:06:22.475Z,96.56
2017-09-07T06:07:22.188Z,97.04
2017-09-07T06:08:22.211Z,96.75
2017-09-07T06:10:22.563Z,97.33
2017-09-07T06:11:22.277Z,96.27
2017-09-07T06:12:22.298Z,96.84
2017-09-07T06:13:22.631Z,97.23
2017-09-07T06:14:22.653Z,97.33
2017-09-07T06:15:22.365Z,96.66
2017-09-07T06:16:22.697Z,97.33
2017-09-07T06:17:22.728Z,97.42
2017-09-07T06:18:22.742Z,97.13
2017-09-07T06:19:37.386Z,97.13
2017-09-07T06:21:22.815Z,96.37
2017-09-07T06:22:22.838Z,96.56
2017-09-07T06:23:22.903Z,95.98
2017-09-07T06:24:22.880Z,96.27
2017-09-07T06:25:22.899Z,96.08
2017-09-07T06:26:22.919Z,95.98
2017-09-07T06:27:22.940Z,95.84
2017-09-07T06:28:22.968Z,95.17
2017-09-07T06:29:22.988Z,94.6
2017-09-07T06:30:23.008Z,94.12
2017-09-07T06:31:23.031Z,93.74
2017-09-07T06:32:23.058Z,93.21
2017-09-07T06:33:22.767Z,93.12
2017-09-07T06:34:23.104Z,92.54
2017-09-07T06:35:37.745Z,92.25
2017-09-07T06:36:23.145Z,92.16
2017-09-07T06:37:23.166Z,92.06
2017-09-07T06:38:23.190Z,91.68
2017-09-07T06:39:23.215Z,91.77
2017-09-07T06:40:23.236Z,91.97
2017-09-07T06:41:23.259Z,90.91
2017-09-07T06:42:23.283Z,91.77
2017-09-07T06:43:23.308Z,91.77
2017-09-07T06:44:23.347Z,91.3
2017-09-07T06:45:23.350Z,91.68
2017-09-07T06:46:23.375Z,92.16
2017-09-07T06:47:23.399Z,92.06
2017-09-07T06:48:23.110Z,92.44
2017-09-07T06:49:23.494Z,92.25
2017-09-07T06:50:23.466Z,91.87
2017-09-07T06:51:38.110Z,92.06
2017-09-07T06:52:23.508Z,91.77
2017-09-07T06:54:23.556Z,91.01
2017-09-07T06:55:23.578Z,90.63
2017-09-07T06:56:23.601Z,90.34
2017-09-07T06:57:23.632Z,90.44
2017-09-07T06:58:23.647Z,90.24
2017-09-07T06:59:23.669Z,90.39
2017-09-07T07:00:23.693Z,90.15
2017-09-07T07:01:23.714Z,90.19
2017-09-07T07:02:23.840Z,90
2017-09-07T07:03:23.764Z,89.9
2017-09-07T07:04:23.787Z,89.14
2017-09-07T07:05:23.808Z,88.85
2017-09-07T07:06:23.832Z,89.43
2017-09-07T07:07:38.476Z,87.7
2017-09-07T07:09:23.904Z,88.09
2017-09-07T07:10:23.926Z,88.37
2017-09-07T07:11:23.950Z,88.18
2017-09-07T07:12:23.970Z,88.66
2017-09-07T07:13:23.995Z,90
2017-09-07T07:14:24.118Z,90.29
2017-09-07T07:15:24.091Z,90.29
2017-09-07T07:16:24.065Z,89.81
2017-09-07T07:17:24.088Z,89.72
2017-09-07T07:18:24.112Z,89.43
2017-09-07T07:20:24.157Z,88.95
2017-09-07T07:21:24.187Z,88.76
2017-09-07T07:22:38.828Z,89.23
2017-09-07T07:23:24.333Z,88.32
2017-09-07T07:24:24.265Z,89.09
2017-09-07T07:25:24.278Z,88.42
2017-09-07T07:26:24.301Z,87.84
2017-09-07T07:27:24.423Z,87.46
2017-09-07T07:28:24.348Z,85.97
2017-09-07T07:29:24.368Z,86.35
2017-09-07T07:30:24.491Z,86.25
2017-09-07T07:31:24.615Z,86.79
2017-09-07T07:32:24.439Z,86.07
2017-09-07T07:33:24.563Z,86.54
2017-09-07T07:34:24.487Z,85.68
2017-09-07T07:35:24.510Z,86.16
2017-09-07T07:36:24.685Z,86.16
2017-09-07T07:37:24.558Z,85.82
2017-09-07T07:38:24.580Z,86.01
2017-09-07T07:39:24.607Z,85.05
2017-09-07T07:40:24.633Z,84.38
2017-09-07T07:41:24.756Z,84
2017-09-07T07:42:24.778Z,83.71
2017-09-07T07:43:24.901Z,84.28
2017-09-07T07:44:24.724Z,83.61
2017-09-07T07:45:24.750Z,83.52
2017-09-07T07:46:24.770Z,83.04
2017-09-07T07:47:24.796Z,83.81
2017-09-07T07:48:24.612Z,83.23
2017-09-07T07:50:24.877Z,83.37
2017-09-07T07:51:24.893Z,82.21
2017-09-07T07:52:24.758Z,81.93
2017-09-07T07:53:25.140Z,81.01
2017-09-07T07:54:39.588Z,79.67
2017-09-07T07:55:25.091Z,79.76
2017-09-07T07:56:24.707Z,79.13
2017-09-07T07:57:24.731Z,77.78
2017-09-07T07:58:24.758Z,76.48
2017-09-07T08:00:25.121Z,77.15
2017-09-07T08:01:25.145Z,76.77
2017-09-07T08:02:24.859Z,75.04
2017-09-07T08:03:25.388Z,74.79
2017-09-07T08:04:25.223Z,74.82
2017-09-07T08:05:25.287Z,73.67
2017-09-07T08:06:24.965Z,72.17
2017-09-07T08:07:25.302Z,71.4
2017-09-07T08:08:25.478Z,71.34
2017-09-07T08:09:25.356Z,72.17
2017-09-07T08:10:40.007Z,72.17
2017-09-07T08:11:25.410Z,71.4
2017-09-07T08:12:25.130Z,71.78
2017-09-07T08:13:25.157Z,72.71
2017-09-07T08:15:25.211Z,75.32
2017-09-07T08:16:25.546Z,75.42
2017-09-07T08:17:25.775Z,74.46
2017-09-07T08:18:25.601Z,73.47
2017-09-07T08:19:25.320Z,73.22
2017-09-07T08:20:25.707Z,73.38
2017-09-07T08:21:25.681Z,73.67
2017-09-07T08:22:25.861Z,73.57
2017-09-07T08:23:26.036Z,73.92
2017-09-07T08:24:25.453Z,74.02
2017-09-07T08:25:25.789Z,73.38
2017-09-07T08:26:40.439Z,73.35
2017-09-07T08:27:25.941Z,74.25
2017-09-07T08:28:25.560Z,73.67
2017-09-07T08:29:25.588Z,73.57
2017-09-07T08:30:25.922Z,73.47
2017-09-07T08:31:26.050Z,73.47
2017-09-07T08:32:25.974Z,73.38
2017-09-07T08:33:26.001Z,74.4
2017-09-07T08:34:26.129Z,73.09
2017-09-07T08:35:26.156Z,73
2017-09-07T08:36:25.874Z,73.22
2017-09-07T08:37:25.800Z,73.22
2017-09-07T08:38:26.138Z,73.67
2017-09-07T08:39:26.360Z,73.57
2017-09-07T08:40:26.186Z,73.47
2017-09-07T08:41:26.213Z,73.77
2017-09-07T08:42:40.862Z,74.34
2017-09-07T08:43:26.371Z,73.44
2017-09-07T08:44:26.394Z,74.4
2017-09-07T08:45:26.319Z,73.15
2017-09-07T08:46:26.288Z,73.44
2017-09-07T08:47:26.062Z,73.38
2017-09-07T08:48:26.090Z,73
2017-09-07T08:50:26.142Z,73.83
2017-09-07T08:51:26.627Z,74.21
2017-09-07T08:52:26.502Z,73.47
2017-09-07T08:53:26.627Z,73.22
2017-09-07T08:54:26.248Z,71.88
2017-09-07T08:55:26.683Z,72.55
2017-09-07T08:56:26.607Z,72.55
2017-09-07T08:57:41.256Z,72.26
2017-09-07T08:58:26.659Z,72.07
2017-09-07T08:59:26.377Z,72.36
2017-09-07T09:00:26.865Z,72.36
2017-09-07T09:01:26.840Z,73
2017-09-07T09:02:26.916Z,73.19
2017-09-07T09:03:26.792Z,73.25
2017-09-07T09:04:26.818Z,74.21
2017-09-07T09:05:26.841Z,74.6
2017-09-07T09:06:27.022Z,74.21
2017-09-07T09:07:26.891Z,74.6
2017-09-07T09:08:27.021Z,75.04
2017-09-07T09:09:26.945Z,76.73
2017-09-07T09:10:26.970Z,76.82
2017-09-07T09:11:27.002Z,76.64
2017-09-07T09:12:27.020Z,76.06
2017-09-07T09:13:27.147Z,76.19
2017-09-07T09:14:27.076Z,76.77
2017-09-07T09:16:26.813Z,76.57
2017-09-07T09:17:27.346Z,76.19
2017-09-07T09:18:27.276Z,75.81
2017-09-07T09:19:27.302Z,75.9
2017-09-07T09:20:27.015Z,76
2017-09-07T09:21:27.257Z,75.62
2017-09-07T09:23:27.584Z,73.86
2017-09-07T09:24:27.525Z,73.32
2017-09-07T09:25:27.348Z,73.38
2017-09-07T09:26:27.379Z,74.54
2017-09-07T09:27:27.501Z,75.02
2017-09-07T09:28:27.428Z,73.57
2017-09-07T09:29:42.080Z,72.17
2017-09-07T09:30:27.577Z,71.55
2017-09-07T09:31:27.604Z,72.07
2017-09-07T09:32:27.629Z,71.4
2017-09-07T09:33:27.553Z,71.65
2017-09-07T09:34:27.730Z,71.4
2017-09-07T09:35:27.605Z,70.43
2017-09-07T09:36:27.629Z,69.67
2017-09-07T09:37:27.754Z,68.74
2017-09-07T09:38:27.785Z,69.7
2017-09-07T09:39:27.916Z,68.35
2017-09-07T09:40:27.732Z,68.58
2017-09-07T09:41:27.911Z,69.09
2017-09-07T09:42:27.784Z,68.64
2017-09-07T09:43:27.915Z,68.35
2017-09-07T09:44:27.840Z,67.42
2017-09-07T09:45:42.488Z,66.94
2017-09-07T09:46:27.894Z,66.69
2017-09-07T09:48:28.096Z,65.5
2017-09-07T09:49:28.073Z,62.15
2017-09-07T09:50:27.997Z,63.12
2017-09-07T09:51:28.024Z,63.47
2017-09-07T09:52:28.059Z,64.15
2017-09-07T09:53:28.076Z,65.56
2017-09-07T09:54:28.105Z,66.39
2017-09-07T09:55:28.332Z,66.94
2017-09-07T09:56:28.257Z,67.81
2017-09-07T09:57:27.877Z,68.26
2017-09-07T09:58:28.212Z,69.38
2017-09-07T09:59:28.239Z,70.24
2017-09-07T10:01:42.912Z,72.32
2017-09-07T10:02:28.414Z,74.5
2017-09-07T10:03:28.597Z,76.96
2017-09-07T10:04:28.061Z,79.17
2017-09-07T10:05:28.591Z,80.66
2017-09-07T10:06:28.519Z,81.82
2017-09-07T10:07:28.445Z,83.6
2017-09-07T10:08:28.569Z,85.58
2017-09-07T10:09:28.493Z,87.3
2017-09-07T10:10:28.520Z,89.27
2017-09-07T10:11:28.546Z,90.71
2017-09-07T10:12:28.572Z,91
2017-09-07T10:13:28.594Z,92.63
2017-09-07T10:14:28.621Z,91.86
2017-09-07T10:15:28.645Z,91.62
2017-09-07T10:16:28.670Z,91.42
2017-09-07T10:17:43.317Z,91.14
2017-09-07T10:18:28.950Z,90.7
2017-09-07T10:19:28.747Z,90.61
2017-09-07T10:20:28.870Z,88.06
2017-09-07T10:21:28.897Z,88.93
2017-09-07T10:22:28.711Z,89.55
2017-09-07T10:23:28.946Z,88.64
2017-09-07T10:24:28.971Z,88.4
2017-09-07T10:25:28.892Z,87.73
2017-09-07T10:26:28.919Z,88.88
2017-09-07T10:27:29.142Z,85.95
2017-09-07T10:29:29.094Z,85.81
2017-09-07T10:30:29.124Z,84.66
2017-09-07T10:31:29.152Z,85.81
2017-09-07T10:32:43.693Z,83.89
2017-09-07T10:33:29.098Z,83.7
2017-09-07T10:34:29.223Z,85
2017-09-07T10:35:29.247Z,85.77
2017-09-07T10:36:29.274Z,86.54
2017-09-07T10:37:29.299Z,87.26
2017-09-07T10:38:29.370Z,89.08
2017-09-07T10:39:29.344Z,90.67
2017-09-07T10:40:29.271Z,90.61
2017-09-07T10:41:29.398Z,90.95
2017-09-07T10:42:29.520Z,91.82
2017-09-07T10:43:29.345Z,90.19
2017-09-07T10:44:29.367Z,91.67
2017-09-07T10:45:29.395Z,91.67
2017-09-07T10:46:29.416Z,91.29
2017-09-07T10:48:29.468Z,90.67
2017-09-07T10:49:29.688Z,90.28
2017-09-07T10:50:29.564Z,90.9
2017-09-07T10:51:29.539Z,89.27
2017-09-07T10:52:29.562Z,90.28
2017-09-07T10:53:29.691Z,88.17
2017-09-07T10:54:29.405Z,88.4
2017-09-07T10:56:29.354Z,85.85
2017-09-07T10:57:29.476Z,85.47
2017-09-07T10:58:29.555Z,84.55
2017-09-07T10:59:29.427Z,83.11
2017-09-07T11:00:29.959Z,81.19
2017-09-07T11:01:29.786Z,82.24
2017-09-07T11:02:29.809Z,81.86
2017-09-07T11:03:29.835Z,83.11
2017-09-07T11:04:44.482Z,82.96
2017-09-07T11:05:29.577Z,82.29
2017-09-07T11:06:30.012Z,80.21
2017-09-07T11:08:30.108Z,79.21
2017-09-07T11:09:30.084Z,80.04
2017-09-07T11:10:30.108Z,81.67
2017-09-07T11:12:30.058Z,81.72
2017-09-07T11:13:30.085Z,81.43
2017-09-07T11:14:30.259Z,81.53
2017-09-07T11:15:30.232Z,81.43
2017-09-07T11:16:30.160Z,82.01
2017-09-07T11:17:29.874Z,81.63
2017-09-07T11:18:30.310Z,81.63
2017-09-07T11:19:30.074Z,81.48
2017-09-07T11:20:44.880Z,80.04
2017-09-07T11:21:30.487Z,80.32
2017-09-07T11:22:30.307Z,79.94
2017-09-07T11:23:30.541Z,80.04
2017-09-07T11:24:30.358Z,79.75
2017-09-07T11:25:30.383Z,79.17
2017-09-07T11:26:30.298Z,78.69
2017-09-07T11:27:30.443Z,79.17
2017-09-07T11:28:30.151Z,79.84
2017-09-07T11:29:30.481Z,79.84
2017-09-07T11:30:30.507Z,80.96
2017-09-07T11:31:30.634Z,78.98
2017-09-07T11:32:30.657Z,78.98
2017-09-07T11:33:30.589Z,79.07
2017-09-07T11:34:30.606Z,78.3
2017-09-07T11:36:45.278Z,79.84
2017-09-07T11:37:30.677Z,79.17
2017-09-07T11:38:30.498Z,79.13
2017-09-07T11:39:30.730Z,78.75
2017-09-07T11:40:30.855Z,79.52
2017-09-07T11:41:30.780Z,79.42
2017-09-07T11:42:30.597Z,79.22
2017-09-07T11:43:30.827Z,80.04
2017-09-07T11:44:30.545Z,78.5
2017-09-07T11:45:30.669Z,78.25
2017-09-07T11:46:30.903Z,76.52
2017-09-07T11:48:30.954Z,75.84
2017-09-07T11:49:30.977Z,76.42
2017-09-07T11:50:31.000Z,76.86
2017-09-07T11:51:30.716Z,77.15
2017-09-07T11:52:45.674Z,77.34
2017-09-07T11:53:30.766Z,77.59
2017-09-07T11:54:30.942Z,79.8
2017-09-07T11:55:30.816Z,82.07
2017-09-07T11:56:31.248Z,83.85
2017-09-07T11:57:31.175Z,86.82
2017-09-07T11:58:30.891Z,88.35
2017-09-07T11:59:31.230Z,88.84
2017-09-07T12:00:31.248Z,88.74
2017-09-07T12:01:30.966Z,87.88
2017-09-07T12:02:31.394Z,87.11
2017-09-07T12:03:31.418Z,88.07
2017-09-07T12:04:31.346Z,86.29
2017-09-07T12:05:31.523Z,86.1
2017-09-07T12:06:31.393Z,85.24
2017-09-07T12:07:46.042Z,84.75
2017-09-07T12:08:31.445Z,84.27
2017-09-07T12:10:31.694Z,84.22
2017-09-07T12:11:31.618Z,83.07
2017-09-07T12:12:31.694Z,82.4
2017-09-07T12:13:31.670Z,83.12
2017-09-07T12:14:31.597Z,82.84
2017-09-07T12:15:31.615Z,82.3
2017-09-07T12:16:31.745Z,81.34
2017-09-07T12:17:31.772Z,81.82
2017-09-07T12:18:31.691Z,81.72
2017-09-07T12:19:31.404Z,81.92
2017-09-07T12:20:31.838Z,81.28
2017-09-07T12:21:31.868Z,80.42
2017-09-07T12:22:31.786Z,80.42
2017-09-07T12:23:31.511Z,80.61
2017-09-07T12:24:31.833Z,79.6
2017-09-07T12:25:31.958Z,79.98
2017-09-07T12:27:31.908Z,79.21
2017-09-07T12:28:31.934Z,79.3
2017-09-07T12:29:31.959Z,78.63
2017-09-07T12:30:31.677Z,78.34
2017-09-07T12:31:32.106Z,78.28
2017-09-07T12:32:32.034Z,78.28
2017-09-07T12:33:32.207Z,76.94
2017-09-07T12:34:32.084Z,76.94
2017-09-07T12:35:32.104Z,76.94
2017-09-07T12:36:32.132Z,76.75
2017-09-07T12:37:32.154Z,75.88
2017-09-07T12:38:32.181Z,77.13
2017-09-07T12:39:46.828Z,76.94
2017-09-07T12:40:31.920Z,76.94
2017-09-07T12:41:32.458Z,76.65
2017-09-07T12:42:32.291Z,77.23
2017-09-07T12:43:32.097Z,77.04
2017-09-07T12:44:32.428Z,76.21
2017-09-07T12:47:32.405Z,76.17
2017-09-07T12:48:32.533Z,75.82
2017-09-07T12:49:32.453Z,77.17
2017-09-07T12:50:32.482Z,76.98
2017-09-07T12:51:32.504Z,76.21
2017-09-07T12:52:32.530Z,77.08
2017-09-07T12:53:32.552Z,77.13
2017-09-07T12:54:32.373Z,77.9
2017-09-07T12:55:47.226Z,77.51
2017-09-07T12:56:32.628Z,77.9
2017-09-07T12:57:32.652Z,76.94
2017-09-07T12:58:32.679Z,77.71
2017-09-07T12:59:32.857Z,77.26
2017-09-07T13:00:32.729Z,76.31
2017-09-07T13:01:32.852Z,76.26
2017-09-07T13:02:32.779Z,76.31
2017-09-07T13:03:32.806Z,75.82
2017-09-07T13:04:32.928Z,76.78
2017-09-07T13:05:32.855Z,76.98
2017-09-07T13:06:32.883Z,76.65
2017-09-07T13:07:32.908Z,77.33
2017-09-07T13:08:32.931Z,77.26
2017-09-07T13:09:33.154Z,75.92
2017-09-07T13:10:33.000Z,75.09
2017-09-07T13:11:47.628Z,75.23
2017-09-07T13:12:33.035Z,73.82
2017-09-07T13:13:33.054Z,73.62
2017-09-07T13:14:33.088Z,72.56
2017-09-07T13:15:33.208Z,73.58
2017-09-07T13:16:33.129Z,73.55
2017-09-07T13:17:33.356Z,73.39
2017-09-07T13:18:33.189Z,72.72
2017-09-07T13:19:33.208Z,73.2
2017-09-07T13:20:33.235Z,71.95
2017-09-07T13:21:33.460Z,72.33
2017-09-07T13:22:33.285Z,73.2
2017-09-07T13:23:33.310Z,73.78
2017-09-07T13:24:33.338Z,73.58
2017-09-07T13:25:33.366Z,73.74
2017-09-07T13:26:33.527Z,74.32
2017-09-07T13:27:48.034Z,74.41
2017-09-07T13:29:33.465Z,75.31
2017-09-07T13:31:33.204Z,77.48
2017-09-07T13:32:33.236Z,78.53
2017-09-07T13:33:33.562Z,78.25
2017-09-07T13:34:33.589Z,78.78
2017-09-07T13:35:33.306Z,79.94
2017-09-07T13:36:33.640Z,79.65
2017-09-07T13:37:33.769Z,78.92
2017-09-07T13:38:33.687Z,79.88
2017-09-07T13:39:33.717Z,79.65
2017-09-07T13:40:33.742Z,79.98
2017-09-07T13:41:33.767Z,79.21
2017-09-07T13:42:48.413Z,80.07
2017-09-07T13:43:33.817Z,80.13
2017-09-07T13:44:33.942Z,80.04
2017-09-07T13:45:33.866Z,80.99
2017-09-07T13:46:33.994Z,80.51